Time;durP1;ratioP1;P1;durP2;ratioP2;P2;SDS_P1;SDS_P2;PMS_P1;PMS_P2;Temp;Humidity;BMP_temperature;BMP_pressure;BME280_temperature;BME280_humidity;BME280_pressure;Samples;Min_cycle;Max_cycle;Signal;HPM_P1;HPM_P2
2022/09/30 18:25:21;;;;;;;;;;;14.80;99.00;15.00;99405.00;;;;332630;29;85348;-91
2022/09/30 18:25:33;;;;;;;;;;;14.70;98.80;15.00;99388.00;;;;333376;29;91327;-91
2022/09/30 18:25:45;;;;;;;;;;;14.70;98.80;15.00;99388.00;;;;332916;29;83418;-90
2022/09/30 18:25:57;;;;;;;;;;;14.70;98.80;15.00;99388.00;;;;331177;29;90782;-90
2022/09/30 18:26:09;;;;;;;;;;;14.70;98.90;15.00;99389.00;;;;332729;29;82485;-91
2022/09/30 18:26:22;;;;;;;;;;;14.70;98.90;15.00;99396.00;;;;330231;29;92718;-91
2022/09/30 18:26:34;;;;;;;;;;;14.70;98.90;14.90;99402.00;;;;331528;29;83506;-91
2022/09/30 18:26:46;;;;;;;;;;;14.70;98.80;14.90;99387.00;;;;331176;29;91308;-91
2022/09/30 18:26:58;;;;;;;;;;;14.60;98.80;14.80;99388.00;;;;332608;29;83594;-90
2022/09/30 18:27:10;;;;;;;;;;;14.60;98.80;14.90;99389.00;;;;330900;29;90759;-90
2022/09/30 18:27:22;;;;;;;;;;;14.60;98.90;14.90;99392.00;;;;332834;29;83483;-90
2022/09/30 18:27:34;;;;;;;;;;;14.60;99.10;15.00;99392.00;;;;332074;29;90383;-90
2022/09/30 18:27:55;;;;;;;;;;;14.60;99.00;14.90;99384.00;;;;331508;29;83423;-91
2022/09/30 18:28:08;;;;;;;;;;;14.60;98.90;15.00;99388.00;;;;332095;29;89897;-91
2022/09/30 18:28:19;;;;;;;;;;;14.60;98.90;14.90;99390.00;;;;331440;29;83575;-91
2022/09/30 18:28:31;;;;;;;;;;;14.60;98.90;15.00;99387.00;;;;331099;29;92244;-91
2022/09/30 18:28:43;;;;;;;;;;;14.60;98.90;15.00;99387.00;;;;331574;29;82478;-90
2022/09/30 18:28:56;;;;;;;;;;;14.60;98.90;15.00;99394.00;;;;333135;29;90796;-91
2022/09/30 18:29:08;;;;;;;;;;;14.70;98.90;14.90;99386.00;;;;331966;29;83680;-90
2022/09/30 18:29:22;;;;;;;;;;;14.70;98.80;14.90;99389.00;;;;329842;29;90333;-91
2022/09/30 18:29:34;;;;;;;;;;;14.60;98.80;15.00;99383.00;;;;330247;29;83344;-90
2022/09/30 18:29:46;;;;;;;;;;;14.60;98.80;15.00;99391.00;;;;332457;29;91621;-91
2022/09/30 18:30:03;;;;;;;;;;;14.70;98.80;14.90;99397.00;;;;331621;29;83400;-90
2022/09/30 18:30:14;;;;;;;;;;;14.60;98.90;14.80;99390.00;;;;331047;29;91773;-90
2022/09/30 18:30:26;;;;;;;;;;;14.60;98.90;14.80;99387.00;;;;331447;29;83468;-90
2022/09/30 18:30:38;;;;;;;;;;;14.60;98.90;14.80;99390.00;;;;332316;29;93014;-91
2022/09/30 18:30:50;;;;;;;;;;;14.60;98.90;14.90;99390.00;;;;331630;29;83552;-91
2022/09/30 18:31:05;;;;;;;;;;;14.60;98.90;14.70;99391.00;;;;331082;29;91334;-90
2022/09/30 18:31:27;;;;;;;;;;;14.60;98.90;14.70;99388.00;;;;330355;29;83538;-91
2022/09/30 18:31:39;;;;;;;;;;;14.60;98.90;14.90;99384.00;;;;329525;29;90764;-90
2022/09/30 18:31:51;;;;;;;;;;;14.60;98.80;15.00;99389.00;;;;331591;29;82520;-92
2022/09/30 18:32:04;;;;;;;;;;;14.60;98.80;15.00;99390.00;;;;331211;29;90360;-89
2022/09/30 18:32:16;;;;;;;;;;;14.60;98.90;15.00;99385.00;;;;332944;29;83443;-88
2022/09/30 18:32:28;;;;;;;;;;;14.60;98.90;14.90;99390.00;;;;329746;29;90360;-93
2022/09/30 18:32:40;;;;;;;;;;;14.60;98.80;15.00;99391.00;;;;334093;29;83450;-90
2022/09/30 18:32:52;;;;;;;;;;;14.60;98.80;15.00;99384.00;;;;333183;29;91600;-90
2022/09/30 18:33:05;;;;;;;;;;;14.60;98.80;14.80;99386.00;;;;330358;29;82658;-91
2022/09/30 18:33:20;;;;;;;;;;;14.60;98.70;14.90;99386.00;;;;330923;29;90550;-90
2022/09/30 18:33:32;;;;;;;;;;;14.60;98.70;14.90;99387.00;;;;332762;29;83502;-90
2022/09/30 18:33:44;;;;;;;;;;;14.60;98.70;14.90;99389.00;;;;332091;29;91484;-89
2022/09/30 18:34:02;;;;;;;;;;;14.60;98.70;14.90;99388.00;;;;331160;29;82645;-94
2022/09/30 18:34:14;;;;;;;;;;;14.60;98.70;14.90;99391.00;;;;331043;29;92000;-94
2022/09/30 18:34:26;;;;;;;;;;;14.60;98.80;14.80;99387.00;;;;333827;29;83604;-91
2022/09/30 18:34:37;;;;;;;;;;;14.60;98.90;14.80;99386.00;;;;332256;29;89381;-94
2022/09/30 18:34:49;;;;;;;;;;;14.60;98.70;14.80;99390.00;;;;331357;29;83594;-90
2022/09/30 18:35:00;;;;;;;;;;;14.60;98.70;14.80;99389.00;;;;332717;29;92629;-91
2022/09/30 18:35:13;;;;;;;;;;;14.60;98.70;14.80;99385.00;;;;332501;29;83514;-90
2022/09/30 18:35:24;;;;;;;;;;;14.60;98.90;14.90;99385.00;;;;329760;29;91542;-91
2022/09/30 18:35:37;;;;;;;;;;;14.60;98.90;14.80;99390.00;;;;331315;29;83479;-91
2022/09/30 18:35:50;;;;;;;;;;;14.60;98.70;14.70;99390.00;;;;330750;29;91238;-90
2022/09/30 18:36:05;;;;;;;;;;;14.60;98.50;14.70;99381.00;;;;331454;29;83526;-92
2022/09/30 18:36:17;;;;;;;;;;;14.50;98.50;14.70;99388.00;;;;331070;29;91717;-90
2022/09/30 18:36:31;;;;;;;;;;;14.50;98.60;14.70;99387.00;;;;330234;29;82597;-91
2022/09/30 18:36:43;;;;;;;;;;;14.50;98.60;14.80;99386.00;;;;331193;29;90626;-91
2022/09/30 18:36:55;;;;;;;;;;;14.50;98.60;14.60;99390.00;;;;332709;29;82491;-90
2022/09/30 18:37:06;;;;;;;;;;;14.50;98.50;14.70;99385.00;;;;331006;29;92545;-90
2022/09/30 18:37:19;;;;;;;;;;;14.50;98.60;14.60;99385.00;;;;331527;29;83520;-89
2022/09/30 18:37:32;;;;;;;;;;;14.40;98.50;14.70;99380.00;;;;332337;29;90309;-91
2022/09/30 18:37:46;;;;;;;;;;;14.50;98.60;14.70;99384.00;;;;329033;29;82800;-91
2022/09/30 18:37:57;;;;;;;;;;;14.40;98.70;14.70;99389.00;;;;329203;29;92135;-91
2022/09/30 18:38:11;;;;;;;;;;;14.40;98.70;14.70;99381.00;;;;331284;29;83630;-92
2022/09/30 18:38:23;;;;;;;;;;;14.40;98.70;14.70;99393.00;;;;327236;29;90287;-90
2022/09/30 18:38:34;;;;;;;;;;;14.40;98.80;14.80;99383.00;;;;331536;29;83447;-91
2022/09/30 18:38:46;;;;;;;;;;;14.40;98.80;14.80;99385.00;;;;332443;29;91315;-90
2022/09/30 18:38:59;;;;;;;;;;;14.40;98.80;14.80;99386.00;;;;330213;29;83662;-93
2022/09/30 18:39:11;;;;;;;;;;;14.40;98.70;14.70;99386.00;;;;332066;29;90151;-91
2022/09/30 18:39:23;;;;;;;;;;;14.40;98.70;14.60;99390.00;;;;331187;29;83592;-92
2022/09/30 18:39:37;;;;;;;;;;;14.40;98.60;14.70;99385.00;;;;329716;29;89553;-91
2022/09/30 18:39:49;;;;;;;;;;;14.40;98.60;14.60;99385.00;;;;332746;29;83444;-95
2022/09/30 18:40:01;;;;;;;;;;;14.40;98.60;14.60;99382.00;;;;332733;29;91081;-94
2022/09/30 18:40:16;;;;;;;;;;;14.40;98.50;14.60;99383.00;;;;331895;29;82311;-94
2022/09/30 18:40:28;;;;;;;;;;;14.40;98.70;14.50;99387.00;;;;329921;29;90555;-93
2022/09/30 18:40:42;;;;;;;;;;;14.40;98.60;14.60;99386.00;;;;332865;29;83590;-94
2022/09/30 18:40:54;;;;;;;;;;;14.30;98.60;14.50;99391.00;;;;331233;29;90925;-95
2022/09/30 18:41:06;;;;;;;;;;;14.30;98.60;14.50;99391.00;;;;331755;29;82340;-94
2022/09/30 18:41:18;;;;;;;;;;;14.30;98.70;14.50;99389.00;;;;333367;29;93158;-94
2022/09/30 18:41:32;;;;;;;;;;;14.30;98.70;14.50;99387.00;;;;332772;29;83465;-95
2022/09/30 18:41:47;;;;;;;;;;;14.30;98.70;14.60;99391.00;;;;332693;29;90746;-95
2022/09/30 18:41:59;;;;;;;;;;;14.30;98.80;14.60;99385.00;;;;331654;29;82569;-94
2022/09/30 18:42:11;;;;;;;;;;;14.30;98.80;14.60;99386.00;;;;328935;29;90913;-95
2022/09/30 18:42:23;;;;;;;;;;;14.30;98.80;14.70;99382.00;;;;333133;29;83475;-94
2022/09/30 18:42:36;;;;;;;;;;;14.30;98.80;14.50;99384.00;;;;332490;29;95152;-94
2022/09/30 18:42:54;;;;;;;;;;;14.30;98.80;14.60;99387.00;;;;334151;29;83547;-94
2022/09/30 18:43:06;;;;;;;;;;;14.30;98.80;14.60;99377.00;;;;329703;29;96604;-94
2022/09/30 18:43:19;;;;;;;;;;;14.30;98.80;14.60;99385.00;;;;331694;29;83537;-94
2022/09/30 18:43:31;;;;;;;;;;;14.30;98.80;14.60;99375.00;;;;332725;29;96873;-94
2022/09/30 18:43:44;;;;;;;;;;;14.30;98.80;14.60;99388.00;;;;331684;29;82313;-93
2022/09/30 18:44:01;;;;;;;;;;;14.30;98.80;14.60;99383.00;;;;329659;29;95768;-93
2022/09/30 18:44:13;;;;;;;;;;;14.30;98.80;14.60;99383.00;;;;329962;29;83418;-94
2022/09/30 18:44:26;;;;;;;;;;;14.30;98.90;14.70;99387.00;;;;332157;29;95457;-95
2022/09/30 18:44:38;;;;;;;;;;;14.30;98.80;14.60;99387.00;;;;333259;29;82551;-95
2022/09/30 18:44:52;;;;;;;;;;;14.30;98.80;14.70;99389.00;;;;333551;29;95457;-94
2022/09/30 18:45:04;;;;;;;;;;;14.30;98.80;14.70;99383.00;;;;331831;29;82573;-93
2022/09/30 18:45:16;;;;;;;;;;;14.30;98.80;14.70;99380.00;;;;330901;29;94999;-92
2022/09/30 18:45:29;;;;;;;;;;;14.30;98.80;14.70;99379.00;;;;331644;29;82684;-95
2022/09/30 18:45:45;;;;;;;;;;;14.30;98.80;14.70;99386.00;;;;329373;29;97016;-95
2022/09/30 18:45:57;;;;;;;;;;;14.30;98.80;14.60;99388.00;;;;330598;29;82289;-95
2022/09/30 18:46:09;;;;;;;;;;;14.30;98.80;14.60;99384.00;;;;330839;29;94587;-92
2022/09/30 18:46:22;;;;;;;;;;;14.30;98.80;14.70;99382.00;;;;331441;29;82498;-94
2022/09/30 18:46:34;;;;;;;;;;;14.30;98.80;14.70;99386.00;;;;330782;29;95155;-94
2022/09/30 18:46:46;;;;;;;;;;;14.30;98.80;14.60;99389.00;;;;332045;29;82414;-95
2022/09/30 18:46:58;;;;;;;;;;;14.30;98.80;14.60;99386.00;;;;331288;29;95367;-94
2022/09/30 18:47:10;;;;;;;;;;;14.30;98.80;14.50;99381.00;;;;333068;29;83396;-95
2022/09/30 18:47:22;;;;;;;;;;;14.30;98.80;14.50;99395.00;;;;331897;29;96558;-94
2022/09/30 18:47:34;;;;;;;;;;;14.30;98.80;14.50;99393.00;;;;330762;29;84541;-93
2022/09/30 18:47:45;;;;;;;;;;;14.30;98.80;14.60;99391.00;;;;332756;29;96809;-94
2022/09/30 18:47:58;;;;;;;;;;;14.30;98.80;14.60;99386.00;;;;332235;29;83457;-95
2022/09/30 18:48:10;;;;;;;;;;;14.30;98.90;14.60;99393.00;;;;330038;29;95513;-94
2022/09/30 18:48:23;;;;;;;;;;;14.30;98.80;14.50;99382.00;;;;333060;29;82579;-95
2022/09/30 18:48:35;;;;;;;;;;;14.30;98.80;14.50;99390.00;;;;332789;29;95870;-95
2022/09/30 18:48:48;;;;;;;;;;;14.30;98.80;14.50;99383.00;;;;334790;29;82614;-93
2022/09/30 18:49:01;;;;;;;;;;;14.30;98.80;14.50;99388.00;;;;333814;29;95795;-94
2022/09/30 18:49:13;;;;;;;;;;;14.30;98.80;14.40;99388.00;;;;332064;29;82571;-95
2022/09/30 18:49:24;;;;;;;;;;;14.20;98.80;14.50;99388.00;;;;331331;29;94038;-93
2022/09/30 18:49:36;;;;;;;;;;;14.20;98.90;14.60;99390.00;;;;332099;29;82512;-94
2022/09/30 18:49:48;;;;;;;;;;;14.20;98.90;14.50;99385.00;;;;331386;29;97683;-94
2022/09/30 18:50:00;;;;;;;;;;;14.20;99.00;14.50;99390.00;;;;330830;29;82601;-94
2022/09/30 18:50:12;;;;;;;;;;;14.20;99.00;14.50;99398.00;;;;330112;29;95679;-94
2022/09/30 18:50:25;;;;;;;;;;;14.20;98.90;14.50;99386.00;;;;332114;29;82319;-94
2022/09/30 18:50:37;;;;;;;;;;;14.20;98.90;14.50;99390.00;;;;333870;29;96504;-94
2022/09/30 18:50:50;;;;;;;;;;;14.20;99.00;14.50;99387.00;;;;330972;29;82560;-95
2022/09/30 18:51:02;;;;;;;;;;;14.20;98.90;14.60;99388.00;;;;331123;29;94360;-94
2022/09/30 18:51:16;;;;;;;;;;;14.20;98.90;14.60;99393.00;;;;333255;29;83486;-94
2022/09/30 18:51:28;;;;;;;;;;;14.20;99.00;14.60;99388.00;;;;331373;29;96918;-94
2022/09/30 18:51:41;;;;;;;;;;;14.20;99.00;14.60;99391.00;;;;332077;29;83499;-95
2022/09/30 18:51:53;;;;;;;;;;;14.20;99.00;14.60;99388.00;;;;331296;29;97930;-95
2022/09/30 18:52:04;;;;;;;;;;;14.20;98.90;14.60;99384.00;;;;334761;29;82558;-94
2022/09/30 18:52:16;;;;;;;;;;;14.20;99.00;14.50;99390.00;;;;331155;29;96788;-94
2022/09/30 18:52:28;;;;;;;;;;;14.20;99.00;14.50;99393.00;;;;333164;29;83251;-95
2022/09/30 18:52:40;;;;;;;;;;;14.20;99.00;14.50;99392.00;;;;332518;29;95311;-95
2022/09/30 18:52:52;;;;;;;;;;;14.20;99.00;14.60;99390.00;;;;332929;29;82590;-94
2022/09/30 18:53:07;;;;;;;;;;;14.20;99.10;14.50;99393.00;;;;332125;29;94465;-95
2022/09/30 18:53:20;;;;;;;;;;;14.20;99.10;14.40;99389.00;;;;330620;29;83362;-94
2022/09/30 18:53:33;;;;;;;;;;;14.20;99.00;14.50;99386.00;;;;332189;29;95110;-94
2022/09/30 18:53:45;;;;;;;;;;;14.20;99.00;14.60;99390.00;;;;333106;29;83397;-95
2022/09/30 18:53:58;;;;;;;;;;;14.30;99.20;14.50;99389.00;;;;331943;29;95372;-94
2022/09/30 18:54:12;;;;;;;;;;;14.20;99.30;14.40;99393.00;;;;332880;29;83416;-94
2022/09/30 18:54:23;;;;;;;;;;;14.20;99.20;14.40;99389.00;;;;330822;29;95856;-94
2022/09/30 18:54:35;;;;;;;;;;;14.20;99.20;14.40;99398.00;;;;332934;29;83334;-94
2022/09/30 18:54:47;;;;;;;;;;;14.20;99.20;14.50;99388.00;;;;329385;29;95754;-94
2022/09/30 18:54:59;;;;;;;;;;;14.20;99.20;14.40;99393.00;;;;331599;29;82556;-94
2022/09/30 18:55:11;;;;;;;;;;;14.20;99.20;14.40;99392.00;;;;330826;29;95695;-94
2022/09/30 18:55:22;;;;;;;;;;;14.20;99.20;14.40;99399.00;;;;332898;29;82570;-95
2022/09/30 18:55:36;;;;;;;;;;;14.20;99.10;14.30;99387.00;;;;332293;29;96930;-94
2022/09/30 18:55:53;;;;;;;;;;;14.20;99.20;14.30;99396.00;;;;330515;29;82683;-94
2022/09/30 18:56:05;;;;;;;;;;;14.10;99.10;14.40;99379.00;;;;331929;29;96883;-94
2022/09/30 18:56:19;;;;;;;;;;;14.20;99.20;14.30;99397.00;;;;331552;29;82622;-93
2022/09/30 18:56:34;;;;;;;;;;;14.10;99.10;14.20;99391.00;;;;331067;29;96525;-94
2022/09/30 18:56:45;;;;;;;;;;;14.10;99.00;14.30;99387.00;;;;329345;29;82592;-94
2022/09/30 18:56:58;;;;;;;;;;;14.10;99.00;14.40;99392.00;;;;332027;29;95779;-94
2022/09/30 18:57:10;;;;;;;;;;;14.10;99.20;14.40;99384.00;;;;330393;29;83494;-94
2022/09/30 18:57:22;;;;;;;;;;;14.10;99.20;14.50;99390.00;;;;329646;29;95535;-94
2022/09/30 18:57:34;;;;;;;;;;;14.10;99.30;14.40;99386.00;;;;330289;29;82597;-94
2022/09/30 18:57:49;;;;;;;;;;;14.10;99.30;14.50;99398.00;;;;329579;29;95637;-95
2022/09/30 18:58:01;;;;;;;;;;;14.10;99.30;14.50;99398.00;;;;334101;29;83385;-94
2022/09/30 18:58:14;;;;;;;;;;;14.10;99.30;14.50;99393.00;;;;332123;29;96090;-94
2022/09/30 18:58:26;;;;;;;;;;;14.10;99.20;14.50;99396.00;;;;329175;29;83457;-94
2022/09/30 18:58:39;;;;;;;;;;;14.10;99.20;14.40;99394.00;;;;330973;29;95559;-93
2022/09/30 18:58:51;;;;;;;;;;;14.10;99.30;14.30;99396.00;;;;332768;29;82644;-92
2022/09/30 18:59:03;;;;;;;;;;;14.10;99.20;14.30;99398.00;;;;331010;29;96230;-93
2022/09/30 18:59:16;;;;;;;;;;;14.10;99.10;14.40;99394.00;;;;327973;29;82619;-93
2022/09/30 18:59:32;;;;;;;;;;;14.10;99.10;14.30;99394.00;;;;329646;29;96753;-93
2022/09/30 18:59:44;;;;;;;;;;;14.10;99.30;14.30;99385.00;;;;332994;29;82623;-95
2022/09/30 18:59:56;;;;;;;;;;;14.10;99.30;14.30;99385.00;;;;331170;29;95717;-94
2022/09/30 19:00:09;;;;;;;;;;;14.00;99.40;14.30;99383.00;;;;330235;29;83480;-94
2022/09/30 19:00:21;;;;;;;;;;;14.10;99.20;14.20;99391.00;;;;328408;29;96841;-93
2022/09/30 19:00:33;;;;;;;;;;;14.00;99.20;14.20;99388.00;;;;333035;29;82551;-94
2022/09/30 19:00:45;;;;;;;;;;;14.00;99.30;14.20;99396.00;;;;330964;29;95934;-94
2022/09/30 19:01:04;;;;;;;;;;;14.00;99.30;14.20;99389.00;;;;331745;29;82526;-94
2022/09/30 19:01:16;;;;;;;;;;;14.00;99.40;14.10;99400.00;;;;332393;29;95998;-94
2022/09/30 19:01:29;;;;;;;;;;;14.00;99.40;14.10;99400.00;;;;330687;29;82430;-94
2022/09/30 19:01:42;;;;;;;;;;;14.00;99.40;14.20;99393.00;;;;331129;29;95858;-94
2022/09/30 19:01:54;;;;;;;;;;;13.90;99.30;14.20;99394.00;;;;333023;29;83470;-94
2022/09/30 19:02:06;;;;;;;;;;;13.90;99.40;14.30;99389.00;;;;331093;29;95785;-93
2022/09/30 19:02:18;;;;;;;;;;;13.90;99.40;14.30;99382.00;;;;330459;29;83586;-93
2022/09/30 19:02:31;;;;;;;;;;;14.00;99.40;14.10;99392.00;;;;329766;29;97844;-94
2022/09/30 19:02:43;;;;;;;;;;;13.90;99.50;14.10;99406.00;;;;329409;29;82606;-93
2022/09/30 19:02:55;;;;;;;;;;;13.90;99.50;14.20;99402.00;;;;329781;29;95501;-93
2022/09/30 19:03:09;;;;;;;;;;;13.90;99.50;14.20;99403.00;;;;332082;29;83481;-93
2022/09/30 19:03:21;;;;;;;;;;;13.90;99.50;14.10;99396.00;;;;331303;29;97434;-94
2022/09/30 19:03:33;;;;;;;;;;;13.90;99.50;14.10;99394.00;;;;332015;29;82556;-94
2022/09/30 19:03:45;;;;;;;;;;;13.90;99.60;14.20;99397.00;;;;331457;29;95731;-94
2022/09/30 19:03:56;;;;;;;;;;;13.90;99.60;14.10;99402.00;;;;333499;29;82466;-94
2022/09/30 19:04:10;;;;;;;;;;;13.90;99.60;14.10;99399.00;;;;332201;29;95615;-93
2022/09/30 19:04:21;;;;;;;;;;;13.90;99.60;14.20;99405.00;;;;330747;29;82657;-94
2022/09/30 19:04:34;;;;;;;;;;;13.90;99.60;14.20;99398.00;;;;329654;29;97961;-93
2022/09/30 19:04:47;;;;;;;;;;;13.90;99.70;14.20;99401.00;;;;332127;29;83811;-94
2022/09/30 19:04:59;;;;;;;;;;;13.90;99.70;14.10;99407.00;;;;330034;29;97089;-94
2022/09/30 19:05:12;;;;;;;;;;;13.90;99.60;14.00;99406.00;;;;330632;29;82605;-94
2022/09/30 19:05:23;;;;;;;;;;;13.80;99.70;14.00;99408.00;;;;330037;29;96185;-93
2022/09/30 19:05:35;;;;;;;;;;;13.80;99.70;14.00;99410.00;;;;329328;29;82698;-93
2022/09/30 19:05:47;;;;;;;;;;;13.80;99.70;14.00;99410.00;;;;330002;29;95743;-94
2022/09/30 19:06:05;;;;;;;;;;;13.80;99.60;14.10;99402.00;;;;329222;29;82594;-93
2022/09/30 19:06:17;;;;;;;;;;;13.80;99.70;14.10;99406.00;;;;330904;29;95611;-94
2022/09/30 19:06:29;;;;;;;;;;;13.80;99.90;14.20;99406.00;;;;331710;29;83361;-94
2022/09/30 19:06:41;;;;;;;;;;;13.80;99.80;14.20;99412.00;;;;330073;29;96730;-94
2022/09/30 19:06:53;;;;;;;;;;;13.80;99.80;14.10;99405.00;;;;330806;29;82381;-94
2022/09/30 19:07:05;;;;;;;;;;;13.80;99.80;14.10;99406.00;;;;330048;29;95374;-93
2022/09/30 19:07:20;;;;;;;;;;;13.80;99.80;14.10;99412.00;;;;331379;29;82614;-94
2022/09/30 19:07:33;;;;;;;;;;;13.80;99.80;14.10;99410.00;;;;329685;29;95635;-93
2022/09/30 19:07:45;;;;;;;;;;;13.80;99.90;14.10;99408.00;;;;331936;29;82517;-94
2022/09/30 19:07:58;;;;;;;;;;;13.80;99.80;14.20;99422.00;;;;331070;29;96664;-94
2022/09/30 19:08:10;;;;;;;;;;;13.80;99.80;14.20;99415.00;;;;330950;29;82496;-93
2022/09/30 19:08:25;;;;;;;;;;;13.80;99.80;14.20;99414.00;;;;331261;29;95487;-94
2022/09/30 19:08:37;;;;;;;;;;;13.80;99.80;14.10;99413.00;;;;332125;29;82630;-94
2022/09/30 19:08:51;;;;;;;;;;;13.80;99.90;14.10;99417.00;;;;331052;29;96976;-94
2022/09/30 19:09:06;;;;;;;;;;;13.80;99.80;14.10;99407.00;;;;333177;29;82629;-94
2022/09/30 19:09:18;;;;;;;;;;;13.80;99.80;14.10;99418.00;;;;329728;29;95736;-93
2022/09/30 19:09:30;;;;;;;;;;;13.80;99.90;14.10;99409.00;;;;330497;29;83475;-94
2022/09/30 19:09:45;;;;;;;;;;;13.80;99.90;14.20;99419.00;;;;331104;29;97118;-94
2022/09/30 19:09:57;;;;;;;;;;;13.80;99.90;14.20;99424.00;;;;330290;29;82519;-94
2022/09/30 19:10:11;;;;;;;;;;;13.80;99.80;14.10;99415.00;;;;331059;29;95917;-94
2022/09/30 19:10:23;;;;;;;;;;;13.80;99.90;14.10;99418.00;;;;330287;29;83568;-94
2022/09/30 19:10:39;;;;;;;;;;;13.80;99.90;14.10;99419.00;;;;330978;29;95982;-95
2022/09/30 19:10:51;;;;;;;;;;;13.80;99.90;14.10;99418.00;;;;332917;29;83599;-94
2022/09/30 19:11:10;;;;;;;;;;;13.80;99.90;14.10;99419.00;;;;330844;29;98093;-94
2022/09/30 19:11:24;;;;;;;;;;;13.80;99.90;14.20;99423.00;;;;332638;29;82589;-94
2022/09/30 19:11:40;;;;;;;;;;;13.80;99.90;14.20;99424.00;;;;332071;29;96142;-94
2022/09/30 19:11:52;;;;;;;;;;;13.80;99.90;14.10;99431.00;;;;331492;29;83636;-93
2022/09/30 19:12:03;;;;;;;;;;;13.80;99.90;14.00;99427.00;;;;331027;29;95305;-93
2022/09/30 19:12:16;;;;;;;;;;;13.80;99.90;14.00;99426.00;;;;330126;29;82442;-94
2022/09/30 19:12:31;;;;;;;;;;;13.80;99.90;14.10;99424.00;;;;329764;29;95392;-94
2022/09/30 19:12:43;;;;;;;;;;;13.70;99.90;14.10;99421.00;;;;331609;29;82596;-94
2022/09/30 19:12:55;;;;;;;;;;;13.80;99.90;14.10;99421.00;;;;329681;29;95137;-95
2022/09/30 19:13:07;;;;;;;;;;;13.80;99.90;14.10;99423.00;;;;331627;29;83299;-94
2022/09/30 19:13:20;;;;;;;;;;;13.80;99.90;14.00;99432.00;;;;333503;29;97858;-94
2022/09/30 19:13:32;;;;;;;;;;;13.80;99.90;14.10;99423.00;;;;330188;29;82690;-93
2022/09/30 19:13:46;;;;;;;;;;;13.80;99.90;14.00;99428.00;;;;332221;29;96709;-95
2022/09/30 19:13:58;;;;;;;;;;;13.80;99.90;14.00;99425.00;;;;333047;29;82556;-95
2022/09/30 19:14:11;;;;;;;;;;;13.80;99.90;14.00;99424.00;;;;328424;29;96441;-93
2022/09/30 19:14:23;;;;;;;;;;;13.80;99.90;14.00;99422.00;;;;331607;29;82635;-93
2022/09/30 19:14:36;;;;;;;;;;;13.70;99.90;14.00;99424.00;;;;333705;29;96941;-93
2022/09/30 19:14:48;;;;;;;;;;;13.80;99.90;14.10;99429.00;;;;332825;29;82549;-94
2022/09/30 19:15:00;;;;;;;;;;;13.70;99.90;14.00;99434.00;;;;329639;29;94992;-94
2022/09/30 19:15:14;;;;;;;;;;;13.80;99.90;13.90;99423.00;;;;329111;29;82494;-94
2022/09/30 19:15:26;;;;;;;;;;;13.70;99.90;13.80;99422.00;;;;329691;29;96040;-94
2022/09/30 19:15:38;;;;;;;;;;;13.70;99.90;13.80;99423.00;;;;330331;29;82589;-94
2022/09/30 19:15:50;;;;;;;;;;;13.70;99.90;14.00;99424.00;;;;330856;29;95835;-94
2022/09/30 19:16:03;;;;;;;;;;;13.70;99.90;14.00;99429.00;;;;329316;29;82703;-94
2022/09/30 19:16:18;;;;;;;;;;;13.70;99.90;14.00;99429.00;;;;327125;29;95009;-94
2022/09/30 19:16:30;;;;;;;;;;;13.70;99.90;14.00;99423.00;;;;331891;29;82631;-94
2022/09/30 19:16:50;;;;;;;;;;;13.70;99.90;14.10;99420.00;;;;331017;29;95372;-93
2022/09/30 19:17:01;;;;;;;;;;;13.70;99.90;14.10;99425.00;;;;331575;29;83539;-94
2022/09/30 19:17:14;;;;;;;;;;;13.70;99.90;14.10;99417.00;;;;330786;29;95746;-93
2022/09/30 19:17:31;;;;;;;;;;;13.70;99.90;14.00;99422.00;;;;330371;29;83389;-94
2022/09/30 19:17:43;;;;;;;;;;;13.70;99.90;13.90;99429.00;;;;329551;29;97228;-93
2022/09/30 19:17:55;;;;;;;;;;;13.70;99.90;13.90;99422.00;;;;332972;29;82462;-93
2022/09/30 19:18:07;;;;;;;;;;;13.70;99.90;13.90;99421.00;;;;329238;29;94694;-94
2022/09/30 19:18:20;;;;;;;;;;;13.70;99.90;13.80;99419.00;;;;331642;29;82486;-95
2022/09/30 19:18:32;;;;;;;;;;;13.70;99.90;13.90;99426.00;;;;330782;29;96582;-94
2022/09/30 19:18:44;;;;;;;;;;;13.60;99.90;13.90;99418.00;;;;332869;29;83567;-94
2022/09/30 19:19:03;;;;;;;;;;;13.60;99.90;13.80;99415.00;;;;330705;29;96430;-94
2022/09/30 19:19:17;;;;;;;;;;;13.60;99.90;13.80;99419.00;;;;330336;29;83455;-94
2022/09/30 19:19:29;;;;;;;;;;;13.60;99.90;13.80;99415.00;;;;332323;29;96611;-94
2022/09/30 19:19:44;;;;;;;;;;;13.60;99.90;13.90;99425.00;;;;331693;29;83623;-94
2022/09/30 19:19:57;;;;;;;;;;;13.60;99.90;14.00;99417.00;;;;329385;29;95401;-94
2022/09/30 19:20:09;;;;;;;;;;;13.60;99.90;14.00;99423.00;;;;331594;29;82499;-94
2022/09/30 19:20:22;;;;;;;;;;;13.60;99.90;14.00;99419.00;;;;331031;29;96548;-94
2022/09/30 19:20:35;;;;;;;;;;;13.60;99.90;14.00;99423.00;;;;333068;29;83458;-93
2022/09/30 19:20:48;;;;;;;;;;;13.60;99.90;14.00;99429.00;;;;330945;29;95473;-94
2022/09/30 19:21:06;;;;;;;;;;;13.60;99.90;13.90;99427.00;;;;330568;29;82632;-94
2022/09/30 19:21:21;;;;;;;;;;;13.60;99.90;14.00;99419.00;;;;331125;29;95865;-93
2022/09/30 19:21:34;;;;;;;;;;;13.60;99.90;13.80;99422.00;;;;332177;29;82463;-94
2022/09/30 19:21:46;;;;;;;;;;;13.60;99.90;13.80;99423.00;;;;329840;29;95410;-94
2022/09/30 19:22:00;;;;;;;;;;;13.60;99.90;13.90;99425.00;;;;333023;29;82434;-93
2022/09/30 19:22:12;;;;;;;;;;;13.60;99.90;14.00;99428.00;;;;329803;29;96548;-94
2022/09/30 19:22:24;;;;;;;;;;;13.60;99.90;14.00;99420.00;;;;331825;29;82578;-94
2022/09/30 19:22:36;;;;;;;;;;;13.60;99.90;14.00;99419.00;;;;331154;29;93776;-93
2022/09/30 19:22:50;;;;;;;;;;;13.60;99.90;14.00;99424.00;;;;329382;29;83334;-94
2022/09/30 19:23:07;;;;;;;;;;;13.60;99.90;13.90;99425.00;;;;330886;29;94332;-92
2022/09/30 19:23:18;;;;;;;;;;;13.60;99.90;14.00;99424.00;;;;332118;29;82263;-94
2022/09/30 19:23:30;;;;;;;;;;;13.60;99.90;13.90;99424.00;;;;329924;29;95569;-94
2022/09/30 19:23:42;;;;;;;;;;;13.60;99.90;13.90;99422.00;;;;331857;29;82554;-94
2022/09/30 19:23:57;;;;;;;;;;;13.60;99.90;13.80;99422.00;;;;334023;29;92487;-94
2022/09/30 19:24:08;;;;;;;;;;;13.60;99.90;13.80;99424.00;;;;331735;29;83515;-93
2022/09/30 19:24:20;;;;;;;;;;;13.60;99.90;13.70;99413.00;;;;329757;29;94920;-94
2022/09/30 19:24:38;;;;;;;;;;;13.60;99.90;13.80;99421.00;;;;329462;29;83528;-93
2022/09/30 19:24:51;;;;;;;;;;;13.50;99.90;13.90;99416.00;;;;329871;29;93172;-95
2022/09/30 19:25:04;;;;;;;;;;;13.60;99.90;13.90;99426.00;;;;331748;29;83643;-93
2022/09/30 19:25:16;;;;;;;;;;;13.60;99.90;13.90;99423.00;;;;329857;29;93597;-93
2022/09/30 19:25:28;;;;;;;;;;;13.50;99.90;13.90;99418.00;;;;329639;29;83477;-93
2022/09/30 19:25:40;;;;;;;;;;;13.60;99.90;14.00;99425.00;;;;332203;29;97215;-93
2022/09/30 19:25:52;;;;;;;;;;;13.50;99.90;14.00;99425.00;;;;330773;29;82507;-94
2022/09/30 19:26:04;;;;;;;;;;;13.60;99.90;13.90;99426.00;;;;328596;29;94975;-94
2022/09/30 19:26:16;;;;;;;;;;;13.60;99.90;13.90;99428.00;;;;331522;29;83556;-93
2022/09/30 19:26:29;;;;;;;;;;;13.50;99.90;13.90;99419.00;;;;331062;29;96353;-93
2022/09/30 19:26:40;;;;;;;;;;;13.60;99.90;13.90;99415.00;;;;329249;29;82496;-94
2022/09/30 19:26:52;;;;;;;;;;;13.60;99.90;13.80;99428.00;;;;327492;29;96044;-92
2022/09/30 19:27:05;;;;;;;;;;;13.60;99.90;13.80;99425.00;;;;331780;29;83505;-93
2022/09/30 19:27:17;;;;;;;;;;;13.60;99.90;13.70;99422.00;;;;330884;29;95599;-94
2022/09/30 19:27:28;;;;;;;;;;;13.50;99.90;13.80;99430.00;;;;329061;29;84096;-94
2022/09/30 19:27:40;;;;;;;;;;;13.50;99.90;13.80;99427.00;;;;329737;29;95330;-93
2022/09/30 19:27:54;;;;;;;;;;;13.50;99.90;13.70;99416.00;;;;330701;29;83406;-96
2022/09/30 19:28:09;;;;;;;;;;;13.50;99.90;13.80;99425.00;;;;329658;29;96665;-93
2022/09/30 19:28:21;;;;;;;;;;;13.50;99.90;13.70;99432.00;;;;331946;29;82618;-94
2022/09/30 19:28:37;;;;;;;;;;;13.50;99.90;13.70;99426.00;;;;329856;29;97473;-94
2022/09/30 19:28:48;;;;;;;;;;;13.50;99.90;13.80;99429.00;;;;330519;29;82516;-94